createdAt,value
2023-01-28T00:02:32.011Z,35.41
2023-01-28T00:07:53.730Z,35.79
2023-01-28T00:13:15.469Z,35.95
2023-01-28T00:18:37.827Z,35.58
2023-01-28T00:23:59.875Z,35.81
2023-01-28T00:29:22.002Z,35.58
2023-01-28T00:34:43.743Z,35.46
2023-01-28T00:40:05.885Z,35.44
2023-01-28T00:45:28.053Z,35.35
2023-01-28T00:50:49.831Z,35.55
2023-01-28T00:56:13.990Z,35.31
2023-01-28T01:01:35.938Z,35.24
2023-01-28T01:06:57.681Z,35.32
2023-01-28T01:12:19.727Z,35.31
2023-01-28T01:17:43.202Z,34.90
2023-01-28T01:23:04.894Z,35.04
2023-01-28T01:28:26.674Z,34.93
2023-01-28T01:33:50.135Z,34.82
2023-01-28T01:39:15.224Z,34.96
2023-01-28T01:44:55.384Z,35.03
2023-01-28T01:50:17.015Z,34.87
2023-01-28T01:55:41.404Z,35.14
2023-01-28T02:01:03.504Z,35.07
2023-01-28T02:06:26.051Z,34.98
2023-01-28T02:11:48.176Z,35.07
2023-01-28T02:17:10.132Z,34.67
2023-01-28T02:23:03.852Z,34.63
2023-01-28T02:28:57.908Z,35.01
2023-01-28T02:34:40.254Z,34.86
2023-01-28T02:40:09.066Z,34.81
2023-01-28T02:45:52.655Z,34.89
2023-01-28T02:51:42.446Z,34.88
2023-01-28T02:57:24.048Z,34.96
2023-01-28T03:03:16.579Z,34.85
2023-01-28T03:09:03.174Z,34.80
2023-01-28T03:14:44.640Z,34.62
2023-01-28T03:20:25.204Z,34.82
2023-01-28T03:26:08.233Z,34.53
2023-01-28T03:31:49.074Z,34.64
2023-01-28T03:37:11.276Z,34.51
2023-01-28T03:42:33.491Z,34.35
2023-01-28T03:47:55.241Z,34.11
2023-01-28T03:53:17.862Z,34.47
2023-01-28T03:59:08.930Z,34.17
2023-01-28T04:04:32.796Z,34.16
2023-01-28T04:09:54.485Z,33.95
2023-01-28T04:15:17.521Z,34.09
2023-01-28T04:20:40.476Z,33.80
2023-01-28T04:26:04.189Z,33.72
2023-01-28T04:31:26.241Z,33.82
2023-01-28T04:36:48.041Z,34.07
2023-01-28T04:42:10.110Z,33.96
2023-01-28T04:47:31.930Z,33.44
2023-01-28T04:52:53.660Z,33.32
2023-01-28T04:58:15.459Z,33.60
2023-01-28T05:03:37.202Z,33.26
2023-01-28T05:08:58.904Z,33.20
2023-01-28T05:14:20.608Z,33.00
2023-01-28T05:19:42.349Z,33.41
2023-01-28T05:25:04.919Z,33.10
2023-01-28T05:30:26.713Z,33.05
2023-01-28T05:35:49.771Z,33.29
2023-01-28T05:41:11.484Z,33.58
2023-01-28T05:46:33.223Z,33.35
2023-01-28T05:51:54.956Z,33.37
2023-01-28T05:57:16.826Z,33.13
2023-01-28T06:02:39.491Z,33.36
2023-01-28T06:08:01.236Z,33.11
2023-01-28T06:13:22.912Z,33.31
2023-01-28T06:18:45.124Z,32.99
2023-01-28T06:24:06.958Z,33.02
2023-01-28T06:29:28.699Z,33.21
2023-01-28T06:34:50.434Z,32.97
2023-01-28T06:40:12.578Z,33.27
2023-01-28T06:45:34.491Z,32.57
2023-01-28T06:50:56.760Z,32.43
2023-01-28T06:56:18.519Z,31.91
2023-01-28T07:01:40.340Z,31.88
2023-01-28T07:07:02.078Z,31.30
2023-01-28T07:12:24.059Z,31.19
2023-01-28T07:17:46.063Z,30.97
2023-01-28T07:23:07.937Z,30.55
2023-01-28T07:28:30.093Z,30.41
2023-01-28T07:33:51.868Z,30.43
2023-01-28T07:39:13.746Z,30.87
2023-01-28T07:44:37.055Z,30.49
2023-01-28T07:49:58.789Z,30.29
2023-01-28T07:55:20.655Z,30.27
2023-01-28T08:00:42.350Z,31.05
2023-01-28T08:06:04.400Z,31.07
2023-01-28T08:11:26.114Z,31.43
2023-01-28T08:16:48.371Z,31.36
2023-01-28T08:22:10.216Z,31.21
2023-01-28T08:27:32.665Z,31.01
2023-01-28T08:33:01.145Z,30.86
2023-01-28T08:38:23.274Z,30.47
2023-01-28T08:43:44.933Z,30.23
2023-01-28T08:49:06.616Z,30.55
2023-01-28T08:54:28.499Z,30.13
2023-01-28T08:59:50.210Z,29.98
2023-01-28T09:05:12.143Z,29.59
2023-01-28T09:10:34.445Z,29.00
2023-01-28T09:15:56.484Z,29.22
2023-01-28T09:21:18.378Z,29.30
2023-01-28T09:26:40.155Z,29.35
2023-01-28T09:32:02.398Z,29.43
2023-01-28T09:37:24.206Z,29.54
2023-01-28T09:42:59.236Z,29.76
2023-01-28T09:48:24.635Z,29.70
2023-01-28T09:53:50.018Z,29.66
2023-01-28T09:59:14.624Z,29.55
2023-01-28T10:04:54.386Z,30.15
2023-01-28T10:10:25.345Z,29.98
2023-01-28T10:16:14.733Z,30.12
2023-01-28T10:21:39.250Z,30.50
2023-01-28T10:27:01.178Z,30.49
2023-01-28T10:32:27.040Z,30.37
2023-01-28T10:37:49.453Z,30.04
2023-01-28T10:43:11.346Z,30.05
2023-01-28T10:49:14.840Z,30.00
2023-01-28T10:54:36.577Z,30.31
2023-01-28T10:59:58.324Z,30.06
2023-01-28T11:05:31.018Z,29.94
2023-01-28T11:10:54.220Z,30.27
2023-01-28T11:16:19.847Z,29.99
2023-01-28T11:21:48.119Z,30.02
2023-01-28T11:27:16.876Z,30.11
2023-01-28T11:32:38.623Z,29.99
2023-01-28T11:38:01.206Z,30.08
2023-01-28T11:43:25.527Z,30.23
2023-01-28T11:49:24.803Z,30.03
2023-01-28T11:55:05.061Z,30.26
2023-01-28T12:00:45.012Z,30.04
2023-01-28T12:06:37.451Z,30.69
2023-01-28T12:12:17.236Z,31.49
2023-01-28T12:18:09.676Z,31.80
2023-01-28T12:23:48.790Z,32.65
2023-01-28T12:30:03.562Z,34.51
2023-01-28T12:35:35.896Z,35.23
2023-01-28T12:41:01.432Z,35.44
2023-01-28T12:46:29.258Z,35.86
2023-01-28T12:52:24.875Z,36.71
2023-01-28T12:57:48.949Z,36.09
2023-01-28T13:03:13.656Z,36.77
2023-01-28T13:08:35.594Z,36.43
2023-01-28T13:13:57.469Z,36.52
2023-01-28T13:19:19.128Z,36.59
2023-01-28T13:24:40.868Z,36.98
2023-01-28T13:30:22.187Z,37.41
2023-01-28T13:35:55.562Z,37.39
2023-01-28T13:41:18.418Z,37.58
2023-01-28T13:46:40.158Z,37.70
2023-01-28T13:52:10.735Z,37.99
2023-01-28T13:57:47.821Z,38.00
2023-01-28T14:03:43.423Z,38.42
2023-01-28T14:09:42.147Z,38.59
2023-01-28T14:15:21.847Z,38.93
2023-01-28T14:20:46.903Z,39.13
2023-01-28T14:26:45.534Z,39.01
2023-01-28T14:32:15.672Z,39.53
2023-01-28T14:37:38.431Z,39.61
2023-01-28T14:43:01.690Z,39.61
2023-01-28T14:48:41.279Z,39.45
2023-01-28T14:54:15.025Z,39.26
2023-01-28T14:59:42.029Z,39.53
2023-01-28T15:05:14.767Z,39.76
2023-01-28T15:10:38.814Z,39.50
2023-01-28T15:16:01.095Z,39.56
2023-01-28T15:21:27.690Z,39.57
2023-01-28T15:26:49.654Z,39.58
2023-01-28T15:32:29.437Z,39.24
2023-01-28T15:37:51.526Z,38.92
2023-01-28T15:43:19.824Z,38.83
2023-01-28T15:48:46.021Z,38.72
2023-01-28T15:54:10.131Z,38.77
2023-01-28T15:59:31.869Z,38.91
2023-01-28T16:05:01.308Z,38.85
2023-01-28T16:10:28.878Z,38.56
2023-01-28T16:15:54.262Z,38.49
2023-01-28T16:21:26.597Z,38.39
2023-01-28T16:27:01.225Z,37.86
2023-01-28T16:32:34.338Z,38.00
2023-01-28T16:37:56.380Z,37.78
2023-01-28T16:43:18.202Z,37.42
2023-01-28T16:48:40.074Z,36.42
2023-01-28T16:54:03.220Z,36.06
2023-01-28T16:59:25.248Z,35.85
2023-01-28T17:04:47.016Z,35.89
2023-01-28T17:10:10.052Z,35.74
2023-01-28T17:15:31.776Z,36.06
2023-01-28T17:20:53.587Z,36.06
2023-01-28T17:26:16.636Z,36.14
2023-01-28T17:31:38.550Z,36.36
2023-01-28T17:37:00.289Z,36.58
2023-01-28T17:42:22.018Z,37.09
2023-01-28T17:47:43.693Z,36.73
2023-01-28T17:53:05.395Z,37.43
2023-01-28T17:58:27.107Z,36.93
2023-01-28T18:03:48.914Z,36.81
2023-01-28T18:09:10.631Z,37.11
2023-01-28T18:14:32.630Z,36.39
2023-01-28T18:19:54.503Z,36.48
2023-01-28T18:25:18.951Z,36.06
2023-01-28T18:30:40.956Z,36.10
2023-01-28T18:36:05.738Z,36.04
2023-01-28T18:41:27.484Z,36.21
2023-01-28T18:46:49.733Z,36.35
2023-01-28T18:52:11.437Z,36.59
2023-01-28T18:57:33.094Z,36.47
2023-01-28T19:02:54.767Z,36.96
2023-01-28T19:08:16.872Z,36.71
2023-01-28T19:13:38.559Z,36.98
2023-01-28T19:19:01.284Z,36.90
2023-01-28T19:24:23.029Z,36.52
2023-01-28T19:29:45.275Z,36.46
2023-01-28T19:35:07.503Z,36.50
2023-01-28T19:40:29.685Z,35.97
2023-01-28T19:45:58.250Z,35.66
2023-01-28T19:51:20.428Z,36.06
2023-01-28T19:56:42.091Z,35.80
2023-01-28T20:02:03.805Z,36.45
2023-01-28T20:07:25.541Z,36.29
2023-01-28T20:12:47.257Z,37.08
2023-01-28T20:18:08.961Z,36.93
2023-01-28T20:23:30.847Z,36.94
2023-01-28T20:28:52.604Z,37.00
2023-01-28T20:34:19.689Z,37.15
2023-01-28T20:39:41.515Z,37.36
2023-01-28T20:45:03.637Z,36.83
2023-01-28T20:50:25.446Z,36.75
2023-01-28T20:55:56.807Z,36.47
2023-01-28T21:01:20.462Z,35.75
2023-01-28T21:06:42.217Z,35.18
2023-01-28T21:12:04.243Z,35.28
2023-01-28T21:17:25.930Z,35.06
2023-01-28T21:22:54.423Z,34.51
2023-01-28T21:28:16.248Z,34.27
2023-01-28T21:33:38.409Z,34.36
2023-01-28T21:39:01.608Z,34.16
2023-01-28T21:44:23.344Z,34.38
2023-01-28T21:49:45.083Z,34.19
2023-01-28T21:55:07.181Z,34.74
2023-01-28T22:00:28.863Z,34.85
2023-01-28T22:05:57.106Z,34.76
2023-01-28T22:11:20.090Z,35.14
2023-01-28T22:16:42.367Z,35.34
2023-01-28T22:22:04.718Z,35.14
2023-01-28T22:27:28.715Z,35.46
2023-01-28T22:32:50.656Z,35.48
2023-01-28T22:38:12.365Z,35.16
2023-01-28T22:43:35.554Z,35.15
2023-01-28T22:48:57.620Z,35.62
2023-01-28T22:54:19.288Z,35.27
2023-01-28T22:59:43.715Z,35.87
2023-01-28T23:05:08.081Z,35.60
2023-01-28T23:10:29.756Z,35.63
2023-01-28T23:16:10.719Z,35.71
2023-01-28T23:21:51.233Z,35.47
2023-01-28T23:27:12.937Z,35.48
2023-01-28T23:32:34.717Z,35.93
2023-01-28T23:37:56.758Z,35.57
2023-01-28T23:43:18.443Z,35.57
2023-01-28T23:48:40.455Z,35.96
2023-01-28T23:54:02.182Z,35.93
2023-01-28T23:59:24.925Z,35.84
